Time;durP1;ratioP1;P1;durP2;ratioP2;P2;SDS_P1;SDS_P2;PMS_P1;PMS_P2;Temp;Humidity;BMP_temperature;BMP_pressure;BME280_temperature;BME280_humidity;BME280_pressure;Samples;Min_cycle;Max_cycle;Signal;HPM_P1;HPM_P2
2023/01/29 00:01:53;;;;;;;8.53;6.37;;;;;;;4.79;nan;102636.84;6150213;28;20362;-66
2023/01/29 00:05:15;;;;;;;9.80;6.87;;;;;;;4.50;nan;102643.25;6141202;28;20230;-67
2023/01/29 00:08:36;;;;;;;11.90;8.17;;;;;;;4.50;nan;102632.56;6157833;28;20253;-66
2023/01/29 00:11:59;;;;;;;9.03;5.67;;;;;;;4.56;nan;102624.34;6149804;28;20230;-67
2023/01/29 00:15:20;;;;;;;8.53;7.03;;;;;;;4.50;nan;102626.34;6145555;28;20226;-67
2023/01/29 00:18:42;;;;;;;11.10;7.37;;;;;;;4.37;nan;102620.56;6160382;28;20227;-66
2023/01/29 00:22:02;;;;;;;9.43;7.27;;;;;;;4.41;nan;102611.53;6152881;28;20324;-67
2023/01/29 00:25:23;;;;;;;8.77;5.73;;;;;;;4.56;nan;102612.78;6129040;28;20316;-67
2023/01/29 00:28:46;;;;;;;9.17;6.20;;;;;;;4.48;nan;102598.81;6164848;28;20713;-66
2023/01/29 00:32:06;;;;;;;7.43;5.80;;;;;;;4.35;nan;102597.50;6152744;28;20239;-65
2023/01/29 00:35:29;;;;;;;5.87;4.73;;;;;;;4.16;nan;102583.94;6149899;28;20230;-67
2023/01/29 00:38:57;;;;;;;5.83;5.33;;;;;;;4.11;nan;102580.56;6151757;28;20230;-65
2023/01/29 00:46:05;;;;;;;6.47;4.90;;;;;;;4.38;nan;102576.91;6146205;28;20212;-67
2023/01/29 00:49:26;;;;;;;11.97;7.07;;;;;;;4.41;nan;102584.81;6166523;28;20765;-66
2023/01/29 00:52:48;;;;;;;11.07;5.10;;;;;;;4.38;nan;102587.59;6147979;28;20227;-66
2023/01/29 00:56:09;;;;;;;7.60;6.10;;;;;;;4.42;nan;102578.53;6164110;28;21577;-66
2023/01/29 00:59:30;;;;;;;9.23;6.03;;;;;;;4.42;nan;102588.38;6152065;28;20239;-66
2023/01/29 01:03:07;;;;;;;7.53;6.73;;;;;;;4.53;nan;102586.16;6143153;28;20624;-67
2023/01/29 01:06:28;;;;;;;8.47;5.43;;;;;;;4.60;nan;102591.25;6156912;28;20556;-65
2023/01/29 01:13:29;;;;;;;6.43;5.53;;;;;;;4.47;nan;102591.72;6169877;28;20243;-66
2023/01/29 01:16:51;;;;;;;9.47;7.77;;;;;;;4.50;nan;102592.50;6156036;28;20233;-66
2023/01/29 01:20:14;;;;;;;10.37;5.43;;;;;;;4.52;nan;102590.66;6170649;28;20237;-66
2023/01/29 01:23:35;;;;;;;10.93;7.33;;;;;;;4.67;nan;102595.41;6158546;28;20234;-65
2023/01/29 01:26:55;;;;;;;7.87;5.33;;;;;;;4.67;nan;102582.06;6147042;28;20237;-66
2023/01/29 01:30:17;;;;;;;5.90;5.20;;;;;;;4.49;nan;102585.41;6154696;28;20321;-67
2023/01/29 01:33:38;;;;;;;5.27;4.53;;;;;;;4.68;nan;102596.28;6159569;28;20282;-67
2023/01/29 01:37:00;;;;;;;6.23;4.77;;;;;;;4.93;nan;102599.78;6167586;28;20234;-67
2023/01/29 01:40:23;;;;;;;6.70;5.37;;;;;;;4.81;nan;102608.28;6149021;28;20752;-66
2023/01/29 01:43:53;;;;;;;5.67;5.07;;;;;;;4.88;nan;102593.78;6164509;28;20230;-66
2023/01/29 01:47:15;;;;;;;9.43;5.67;;;;;;;4.96;nan;102588.13;6161531;28;20234;-65
2023/01/29 01:50:41;;;;;;;5.30;4.53;;;;;;;4.95;nan;102591.72;6155327;28;20230;-67
2023/01/29 01:54:08;;;;;;;6.43;5.07;;;;;;;4.92;nan;102589.16;6153837;28;20254;-66
2023/01/29 01:57:31;;;;;;;10.20;4.73;;;;;;;4.70;nan;102591.75;6172934;28;20230;-66
2023/01/29 02:00:52;;;;;;;7.07;6.37;;;;;;;4.56;nan;102589.63;6165281;28;20261;-68
2023/01/29 02:11:34;;;;;;;5.00;4.57;;;;;;;4.84;nan;102578.75;6180541;28;20286;-67
2023/01/29 02:14:55;;;;;;;7.70;5.47;;;;;;;4.78;nan;102565.63;6168512;28;20226;-66
2023/01/29 02:18:19;;;;;;;6.00;4.90;;;;;;;4.84;nan;102573.41;6179405;28;20230;-66
2023/01/29 02:22:06;;;;;;;14.20;7.43;;;;;;;4.65;nan;102573.22;6178166;28;20229;-66
2023/01/29 02:25:47;;;;;;;7.20;4.80;;;;;;;4.76;nan;102568.38;6167635;28;20233;-66
2023/01/29 02:29:25;;;;;;;5.43;4.63;;;;;;;4.63;nan;102569.75;6179166;28;20229;-66
2023/01/29 02:32:57;;;;;;;14.63;5.20;;;;;;;4.90;nan;102558.97;6160477;28;20225;-66
2023/01/29 02:36:26;;;;;;;6.53;5.93;;;;;;;4.73;nan;102557.81;6176186;28;20606;-67
2023/01/29 02:39:55;;;;;;;6.43;4.80;;;;;;;4.55;nan;102547.81;6159829;28;20237;-66
2023/01/29 02:43:30;;;;;;;8.67;5.23;;;;;;;4.59;nan;102556.59;6190761;28;20328;-65
2023/01/29 02:47:00;;;;;;;7.83;5.33;;;;;;;4.68;nan;102548.22;6187773;28;20983;-67
2023/01/29 02:50:29;;;;;;;4.80;3.73;;;;;;;4.45;nan;102561.53;6171427;28;20236;-68
2023/01/29 02:53:59;;;;;;;7.83;5.10;;;;;;;4.45;nan;102538.41;6177693;28;20234;-66
2023/01/29 02:57:22;;;;;;;5.17;4.77;;;;;;;4.45;nan;102535.72;6179742;28;20229;-66
2023/01/29 03:00:46;;;;;;;5.57;4.37;;;;;;;4.41;nan;102536.78;6176246;28;20240;-66
2023/01/29 03:04:12;;;;;;;6.67;5.97;;;;;;;4.60;nan;102524.47;6195472;28;21145;-65
2023/01/29 03:07:43;;;;;;;7.70;5.00;;;;;;;4.53;nan;102516.72;6181635;28;20568;-65
2023/01/29 03:11:12;;;;;;;4.50;4.03;;;;;;;4.52;nan;102507.88;6190001;28;20241;-66
2023/01/29 03:15:10;;;;;;;6.80;6.10;;;;;;;4.71;nan;102514.25;6174376;28;20241;-66
2023/01/29 03:18:26;;;;;;;5.17;4.50;;;;;;;4.55;nan;102489.06;6174731;28;20792;-67
2023/01/29 03:21:57;;;;;;;6.07;5.13;;;;;;;4.66;nan;102504.66;6172654;28;20225;-67
2023/01/29 03:32:44;;;;;;;8.13;5.93;;;;;;;4.70;nan;102493.81;6180259;28;20233;-66
2023/01/29 03:36:10;;;;;;;6.83;5.73;;;;;;;4.79;nan;102484.59;6168699;28;20222;-65
2023/01/29 03:39:33;;;;;;;8.53;4.93;;;;;;;4.95;nan;102479.47;6156451;28;20628;-65
2023/01/29 03:43:05;;;;;;;5.43;4.87;;;;;;;4.81;nan;102486.28;6171401;28;20273;-67
2023/01/29 03:46:35;;;;;;;5.67;4.63;;;;;;;4.63;nan;102484.28;6172865;28;20229;-66
2023/01/29 03:50:00;;;;;;;6.33;4.87;;;;;;;4.74;nan;102489.22;6180795;28;20237;-65
2023/01/29 03:53:25;;;;;;;8.23;5.03;;;;;;;4.56;nan;102487.25;6189528;28;20241;-66
2023/01/29 03:56:58;;;;;;;7.10;5.33;;;;;;;4.63;nan;102486.97;6189950;28;20263;-66
2023/01/29 04:00:24;;;;;;;5.27;4.33;;;;;;;4.69;nan;102475.19;6189568;28;20673;-66
2023/01/29 04:03:58;;;;;;;7.03;4.60;;;;;;;4.53;nan;102474.00;6193472;28;22263;-66
2023/01/29 04:07:23;;;;;;;6.73;4.87;;;;;;;4.59;nan;102474.66;6186965;28;20237;-66
2023/01/29 04:10:52;;;;;;;4.40;3.87;;;;;;;4.50;nan;102468.81;6175098;28;20752;-67
2023/01/29 04:14:16;;;;;;;6.10;5.50;;;;;;;4.44;nan;102469.03;6179928;28;20238;-66
2023/01/29 04:17:41;;;;;;;9.33;6.83;;;;;;;4.44;nan;102469.03;6180128;28;20226;-67
2023/01/29 04:21:14;;;;;;;9.93;6.53;;;;;;;4.30;nan;102456.19;6183621;28;20599;-66
2023/01/29 04:24:36;;;;;;;5.13;4.47;;;;;;;4.55;nan;102451.66;6187378;28;20237;-67
2023/01/29 04:28:05;;;;;;;6.53;4.43;;;;;;;4.45;nan;102463.63;6171587;28;20557;-66
2023/01/29 04:31:33;;;;;;;7.27;6.07;;;;;;;4.66;nan;102460.16;6185874;28;20328;-66
2023/01/29 04:35:00;;;;;;;7.33;4.63;;;;;;;4.71;nan;102458.16;6178173;28;20321;-67
2023/01/29 04:38:34;;;;;;;5.63;4.47;;;;;;;4.70;nan;102459.09;6184831;28;20630;-66
2023/01/29 04:42:04;;;;;;;5.27;4.60;;;;;;;4.72;nan;102464.38;6176999;28;20232;-66
2023/01/29 04:45:34;;;;;;;5.43;4.37;;;;;;;4.63;nan;102470.94;6176511;28;20260;-65
2023/01/29 04:49:12;;;;;;;9.23;5.97;;;;;;;4.95;nan;102475.03;6185870;28;20488;-67
2023/01/29 04:52:44;;;;;;;7.47;4.73;;;;;;;4.61;nan;102479.97;6180572;28;20225;-67
2023/01/29 04:56:10;;;;;;;6.20;4.40;;;;;;;4.61;nan;102487.97;6173603;28;20237;-65
2023/01/29 04:59:36;;;;;;;9.03;6.17;;;;;;;4.66;nan;102481.50;6170397;28;20329;-68
2023/01/29 05:03:00;;;;;;;5.33;4.83;;;;;;;4.77;nan;102478.44;6161315;28;20230;-67
2023/01/29 05:06:25;;;;;;;5.57;4.30;;;;;;;4.37;nan;102488.88;6177008;28;20316;-66
2023/01/29 05:09:47;;;;;;;7.83;5.47;;;;;;;4.58;nan;102469.38;6165630;28;20683;-68
2023/01/29 05:13:12;;;;;;;9.17;5.43;;;;;;;4.37;nan;102471.06;6192157;28;20226;-66
2023/01/29 05:16:40;;;;;;;8.40;5.23;;;;;;;4.49;nan;102459.03;6183873;28;20241;-67
2023/01/29 05:20:02;;;;;;;8.07;5.53;;;;;;;4.57;nan;102446.25;6170236;28;20236;-66
2023/01/29 05:23:24;;;;;;;8.70;5.23;;;;;;;4.29;nan;102445.59;6182964;28;20238;-66
2023/01/29 05:30:25;;;;;;;8.70;5.63;;;;;;;4.37;nan;102451.50;6170589;28;20252;-67
2023/01/29 05:33:46;;;;;;;7.47;5.20;;;;;;;4.42;nan;102460.22;6187775;28;20623;-67
2023/01/29 05:37:07;;;;;;;6.83;5.77;;;;;;;4.50;nan;102455.47;6186890;28;20245;-66
2023/01/29 05:40:29;;;;;;;6.57;5.97;;;;;;;4.43;nan;102444.13;6172624;28;20326;-66
2023/01/29 05:43:50;;;;;;;8.57;5.90;;;;;;;4.21;nan;102440.56;6190763;28;20576;-66
2023/01/29 05:47:11;;;;;;;7.47;5.10;;;;;;;4.11;nan;102440.94;6186968;28;20229;-66
2023/01/29 05:50:32;;;;;;;6.67;5.57;;;;;;;4.53;nan;102434.84;6179603;28;20237;-67
2023/01/29 05:53:53;;;;;;;9.20;5.67;;;;;;;4.47;nan;102437.75;6189816;28;20229;-66
2023/01/29 05:57:19;;;;;;;7.60;5.97;;;;;;;4.38;nan;102454.09;6163004;28;20225;-66
2023/01/29 06:00:40;;;;;;;5.43;4.83;;;;;;;4.31;nan;102444.63;6177415;28;20238;-66
2023/01/29 06:04:01;;;;;;;8.50;5.53;;;;;;;4.68;nan;102452.94;6187012;28;20320;-66
2023/01/29 06:07:22;;;;;;;7.80;5.70;;;;;;;4.86;nan;102462.91;6186988;28;20234;-67
2023/01/29 06:10:43;;;;;;;10.10;6.67;;;;;;;4.38;nan;102442.59;6175723;28;20245;-66
2023/01/29 06:14:06;;;;;;;8.10;6.87;;;;;;;4.53;nan;102447.31;6185064;28;20234;-67
2023/01/29 06:17:27;;;;;;;6.77;3.90;;;;;;;4.54;nan;102438.38;6175641;28;20229;-67
2023/01/29 06:20:47;;;;;;;6.27;4.93;;;;;;;4.22;nan;102415.59;6153805;28;20257;-67
2023/01/29 06:24:09;;;;;;;6.30;4.47;;;;;;;4.43;nan;102408.56;6181887;28;20702;-66
2023/01/29 06:27:29;;;;;;;6.63;5.00;;;;;;;4.47;nan;102420.84;6182597;28;20237;-67
2023/01/29 06:30:51;;;;;;;5.80;4.97;;;;;;;4.41;nan;102415.75;6171795;28;20233;-67
2023/01/29 06:34:12;;;;;;;7.53;5.93;;;;;;;4.61;nan;102405.19;6178316;28;20241;-67
2023/01/29 06:37:33;;;;;;;9.63;5.97;;;;;;;4.47;nan;102400.38;6181547;28;20222;-67
2023/01/29 06:40:55;;;;;;;7.50;5.83;;;;;;;4.58;nan;102390.16;6174714;28;20316;-67
2023/01/29 06:44:16;;;;;;;10.30;5.40;;;;;;;4.47;nan;102378.13;6183512;28;20233;-67
2023/01/29 06:47:38;;;;;;;5.50;4.73;;;;;;;4.51;nan;102391.31;6178569;28;20254;-66
2023/01/29 06:51:02;;;;;;;8.37;5.63;;;;;;;4.50;nan;102386.91;6178329;28;20228;-67
2023/01/29 06:54:23;;;;;;;7.73;5.57;;;;;;;4.35;nan;102382.16;6181723;28;22550;-66
2023/01/29 06:57:44;;;;;;;5.33;4.47;;;;;;;4.53;nan;102370.75;6165975;28;20655;-66
2023/01/29 07:01:06;;;;;;;6.63;5.73;;;;;;;4.58;nan;102381.25;6169547;28;20237;-67
2023/01/29 07:04:28;;;;;;;8.40;5.33;;;;;;;4.56;nan;102378.66;6174898;28;20321;-67
2023/01/29 07:07:49;;;;;;;8.27;5.83;;;;;;;4.64;nan;102375.66;6133684;28;20226;-67
2023/01/29 07:11:11;;;;;;;6.50;4.53;;;;;;;4.72;nan;102379.78;6146650;28;20233;-67
2023/01/29 07:14:32;;;;;;;14.03;5.67;;;;;;;4.61;nan;102376.66;6146107;28;20341;-67
2023/01/29 07:17:57;;;;;;;10.20;5.20;;;;;;;4.49;nan;102384.28;6154346;28;20237;-67
2023/01/29 07:21:19;;;;;;;6.50;4.70;;;;;;;4.74;nan;102388.59;6155019;28;20233;-66
2023/01/29 07:24:40;;;;;;;7.20;4.70;;;;;;;4.62;nan;102389.09;6149292;28;20505;-67
2023/01/29 07:28:02;;;;;;;5.47;4.77;;;;;;;4.58;nan;102386.59;6149483;28;20238;-66
2023/01/29 07:31:23;;;;;;;8.87;6.67;;;;;;;4.69;nan;102384.38;6145108;28;20247;-66
2023/01/29 07:34:43;;;;;;;6.57;5.50;;;;;;;4.56;nan;102388.47;6142261;28;20234;-67
2023/01/29 07:38:06;;;;;;;7.47;5.07;;;;;;;4.55;nan;102371.56;6148695;28;22150;-67
2023/01/29 07:41:27;;;;;;;5.73;4.63;;;;;;;4.37;nan;102361.63;6143706;28;20266;-68
2023/01/29 07:44:49;;;;;;;9.38;6.20;;;;;;;4.23;nan;102347.97;6135841;28;20786;-68
2023/01/29 07:48:12;;;;;;;8.57;7.72;;;;;;;4.47;nan;102341.63;6146486;28;20711;-68
2023/01/29 07:51:33;;;;;;;8.57;6.30;;;;;;;4.44;nan;102341.78;6147426;28;20605;-68
2023/01/29 07:54:55;;;;;;;9.70;7.83;;;;;;;4.56;nan;102351.97;6153046;28;20317;-67
2023/01/29 07:58:16;;;;;;;6.63;5.70;;;;;;;4.43;nan;102355.16;6169133;28;20226;-66
2023/01/29 08:01:37;;;;;;;6.83;6.17;;;;;;;4.60;nan;102337.56;6190446;28;20237;-66
2023/01/29 08:04:58;;;;;;;6.13;5.53;;;;;;;4.33;nan;102359.13;6168272;28;20234;-68
2023/01/29 08:08:19;;;;;;;10.03;6.33;;;;;;;4.17;nan;102350.88;6193097;28;20261;-68
2023/01/29 08:11:41;;;;;;;9.97;7.10;;;;;;;4.13;nan;102345.69;6181452;28;20253;-67
2023/01/29 08:15:02;;;;;;;9.03;6.43;;;;;;;4.22;nan;102340.00;6169288;28;20222;-66
2023/01/29 08:18:23;;;;;;;9.67;6.90;;;;;;;4.12;nan;102350.16;6181833;28;20229;-67
2023/01/29 08:21:44;;;;;;;17.10;7.77;;;;;;;4.21;nan;102347.16;6162740;28;20245;-68
2023/01/29 08:25:05;;;;;;;9.30;5.07;;;;;;;4.20;nan;102355.19;6162837;28;21261;-67
2023/01/29 08:28:28;;;;;;;10.47;6.80;;;;;;;4.58;nan;102346.53;6161903;28;20599;-67
2023/01/29 08:31:49;;;;;;;13.27;8.27;;;;;;;4.36;nan;102349.19;6155290;28;20261;-67
2023/01/29 08:35:10;;;;;;;13.10;8.33;;;;;;;4.46;nan;102339.03;6168055;28;20776;-67
2023/01/29 08:38:31;;;;;;;12.67;8.50;;;;;;;4.53;nan;102338.72;6169161;28;20238;-67
2023/01/29 08:41:52;;;;;;;12.30;9.77;;;;;;;4.44;nan;102336.44;6161383;28;20237;-67
2023/01/29 08:45:14;;;;;;;14.83;9.83;;;;;;;4.71;nan;102329.94;6151730;28;20237;-68
2023/01/29 08:48:35;;;;;;;14.33;10.50;;;;;;;4.31;nan;102337.84;6183633;28;20238;-67
2023/01/29 08:51:56;;;;;;;11.13;7.87;;;;;;;4.29;nan;102346.84;6165221;28;20225;-68
2023/01/29 08:55:17;;;;;;;15.07;10.43;;;;;;;4.36;nan;102341.19;6159500;28;20637;-67
2023/01/29 08:58:38;;;;;;;19.43;11.83;;;;;;;4.59;nan;102342.97;6173848;28;20507;-68
2023/01/29 09:02:00;;;;;;;17.83;11.60;;;;;;;4.19;nan;102341.00;6186881;28;20249;-68
2023/01/29 09:05:22;;;;;;;15.77;11.23;;;;;;;4.48;nan;102334.50;6157686;28;20230;-68
2023/01/29 09:08:43;;;;;;;16.63;12.00;;;;;;;4.50;nan;102340.66;6164772;28;20239;-68
2023/01/29 09:12:04;;;;;;;14.73;10.27;;;;;;;4.52;nan;102355.69;6186820;28;20240;-69
2023/01/29 09:15:25;;;;;;;24.80;10.97;;;;;;;4.59;nan;102343.81;6155961;28;20241;-67
2023/01/29 09:18:47;;;;;;;16.73;9.83;;;;;;;4.63;nan;102342.75;6160197;28;20316;-68
2023/01/29 09:22:08;;;;;;;15.93;11.73;;;;;;;4.63;nan;102324.06;6169068;28;20255;-68
2023/01/29 09:25:29;;;;;;;15.57;11.33;;;;;;;4.63;nan;102334.72;6148839;28;20242;-67
2023/01/29 09:28:51;;;;;;;17.10;11.10;;;;;;;4.60;nan;102332.22;6167231;28;20226;-67
2023/01/29 09:32:13;;;;;;;15.50;10.13;;;;;;;4.60;nan;102317.97;6172211;28;20313;-69
2023/01/29 09:35:36;;;;;;;16.03;12.00;;;;;;;4.70;nan;102312.19;6158032;28;20260;-67
2023/01/29 09:38:57;;;;;;;14.17;11.90;;;;;;;4.37;nan;102310.03;6190859;28;20234;-68
2023/01/29 09:42:24;;;;;;;12.03;8.77;;;;;;;4.41;nan;102325.88;6185122;28;20616;-67
2023/01/29 09:45:53;;;;;;;13.07;10.10;;;;;;;4.71;nan;102313.91;6174529;28;20278;-67
2023/01/29 09:49:22;;;;;;;15.77;10.67;;;;;;;4.62;nan;102310.78;6187034;28;20233;-67
2023/01/29 09:52:50;;;;;;;17.03;12.17;;;;;;;4.70;nan;102314.88;6183131;28;20234;-67
2023/01/29 09:56:14;;;;;;;16.90;12.20;;;;;;;4.83;nan;102297.41;6176211;28;20597;-67
2023/01/29 09:59:35;;;;;;;19.23;12.73;;;;;;;4.63;nan;102283.16;6180110;28;20325;-68
2023/01/29 10:03:20;;;;;;;15.37;11.60;;;;;;;4.55;nan;102272.75;6177822;28;20587;-66
2023/01/29 10:06:53;;;;;;;14.57;9.83;;;;;;;4.74;nan;102263.06;6184123;28;20229;-67
2023/01/29 10:10:34;;;;;;;13.57;10.07;;;;;;;4.56;nan;102276.31;6172939;28;20220;-67
2023/01/29 10:14:04;;;;;;;15.50;9.37;;;;;;;4.42;nan;102268.84;6190252;28;20493;-68
2023/01/29 10:17:40;;;;;;;11.60;9.70;;;;;;;4.47;nan;102258.00;6192660;28;20233;-68
2023/01/29 10:21:11;;;;;;;20.33;14.43;;;;;;;4.48;nan;102260.63;6173117;28;20233;-68
2023/01/29 10:24:37;;;;;;;15.87;11.87;;;;;;;4.65;nan;102236.72;6179155;28;20325;-67
2023/01/29 10:28:01;;;;;;;15.40;12.73;;;;;;;4.83;nan;102238.63;6178061;28;20253;-69
2023/01/29 10:31:30;;;;;;;25.70;18.50;;;;;;;5.06;nan;102239.41;6175937;28;20622;-67
2023/01/29 10:34:56;;;;;;;21.13;15.57;;;;;;;5.34;nan;102219.41;6171681;28;20225;-66
2023/01/29 10:38:28;;;;;;;22.67;14.23;;;;;;;5.23;nan;102215.50;6183672;28;20241;-69
2023/01/29 10:42:04;;;;;;;18.57;15.07;;;;;;;5.73;nan;102221.16;6190921;28;20241;-68
2023/01/29 10:45:35;;;;;;;17.87;13.80;;;;;;;5.31;nan;102200.84;6163305;28;20221;-68
2023/01/29 10:49:05;;;;;;;23.07;15.00;;;;;;;5.57;nan;102204.97;6180244;28;20233;-66
2023/01/29 10:52:41;;;;;;;14.43;11.27;;;;;;;5.07;nan;102207.28;6141965;28;20235;-69
2023/01/29 10:56:19;;;;;;;18.63;13.07;;;;;;;5.16;nan;102195.31;6162768;28;20322;-69
2023/01/29 10:59:53;;;;;;;15.43;12.83;;;;;;;5.05;nan;102201.13;6158019;28;20616;-68
2023/01/29 11:03:17;;;;;;;12.47;11.17;;;;;;;5.19;nan;102196.06;6151823;28;20234;-68
2023/01/29 11:06:38;;;;;;;13.37;11.77;;;;;;;5.17;nan;102187.25;6158851;28;20387;-69
2023/01/29 11:10:07;;;;;;;20.70;13.20;;;;;;;5.25;nan;102184.22;6146151;28;20230;-68
2023/01/29 11:13:32;;;;;;;15.23;10.33;;;;;;;5.18;nan;102174.72;6158594;28;20231;-68
2023/01/29 11:16:53;;;;;;;15.37;10.63;;;;;;;5.28;nan;102179.56;6163675;28;20266;-68
2023/01/29 11:20:26;;;;;;;14.20;12.40;;;;;;;5.26;nan;102168.09;6181999;28;20233;-68
2023/01/29 11:23:47;;;;;;;15.10;11.87;;;;;;;5.29;nan;102177.78;6154330;28;20238;-69
2023/01/29 11:27:15;;;;;;;13.00;10.20;;;;;;;5.25;nan;102173.50;6179248;28;20325;-69
2023/01/29 11:30:39;;;;;;;14.03;11.83;;;;;;;5.09;nan;102168.00;6170091;28;20228;-68
2023/01/29 11:34:05;;;;;;;18.33;12.80;;;;;;;5.12;nan;102167.88;6185908;28;20221;-69
2023/01/29 11:37:34;;;;;;;15.77;11.07;;;;;;;5.19;nan;102157.75;6182066;28;20221;-68
2023/01/29 11:41:05;;;;;;;11.43;10.20;;;;;;;5.25;nan;102149.47;6168408;28;20314;-69
2023/01/29 11:44:29;;;;;;;14.07;9.90;;;;;;;5.15;nan;102154.38;6181160;28;20229;-68
2023/01/29 11:47:53;;;;;;;11.40;9.10;;;;;;;5.43;nan;102143.25;6180512;28;20233;-67
2023/01/29 11:51:23;;;;;;;15.10;12.07;;;;;;;5.17;nan;102154.28;6179701;28;20941;-69
2023/01/29 11:54:49;;;;;;;12.00;10.13;;;;;;;5.19;nan;102134.59;6172600;28;20236;-68
2023/01/29 11:58:16;;;;;;;13.03;10.03;;;;;;;5.28;nan;102144.81;6154226;28;20534;-67
2023/01/29 12:01:41;;;;;;;15.13;10.53;;;;;;;5.27;nan;102124.41;6176940;28;20232;-68
2023/01/29 12:05:06;;;;;;;13.87;10.83;;;;;;;5.33;nan;102117.88;6172005;28;20229;-68
2023/01/29 12:08:33;;;;;;;13.20;9.00;;;;;;;5.39;nan;102114.91;6172650;28;20233;-68
2023/01/29 12:11:56;;;;;;;14.47;9.63;;;;;;;5.18;nan;102094.53;6178284;28;20259;-69
2023/01/29 12:15:23;;;;;;;8.87;7.83;;;;;;;5.39;nan;102105.09;6152790;28;20316;-68
2023/01/29 12:18:49;;;;;;;13.20;11.17;;;;;;;5.26;nan;102092.38;6179671;28;21815;-66
2023/01/29 12:22:17;;;;;;;17.40;12.33;;;;;;;5.31;nan;102088.56;6182021;28;20230;-66
2023/01/29 12:25:45;;;;;;;16.47;10.97;;;;;;;5.47;nan;102078.84;6181620;28;20323;-67
2023/01/29 12:29:25;;;;;;;14.20;10.57;;;;;;;5.35;nan;102084.78;6188998;28;20236;-67
2023/01/29 12:32:54;;;;;;;15.63;9.87;;;;;;;5.50;nan;102078.72;6171768;28;20643;-67
2023/01/29 12:36:21;;;;;;;12.07;9.23;;;;;;;5.28;nan;102075.31;6184412;28;20229;-66
2023/01/29 12:39:42;;;;;;;11.97;9.17;;;;;;;5.29;nan;102055.69;6188329;28;20592;-67
2023/01/29 12:43:12;;;;;;;10.27;8.97;;;;;;;5.15;nan;102051.94;6185294;28;20229;-67
2023/01/29 12:46:40;;;;;;;14.90;10.00;;;;;;;5.19;nan;102051.72;6186161;28;20305;-67
2023/01/29 12:50:05;;;;;;;17.40;9.90;;;;;;;5.35;nan;102036.66;6180307;28;20242;-66
2023/01/29 12:53:30;;;;;;;13.30;9.60;;;;;;;5.22;nan;102038.19;6201384;28;20238;-66
2023/01/29 12:56:56;;;;;;;12.10;8.63;;;;;;;5.08;nan;102029.97;6187831;28;20228;-66
2023/01/29 13:00:21;;;;;;;14.07;11.07;;;;;;;5.21;nan;102031.13;6174659;28;20233;-67
2023/01/29 13:03:51;;;;;;;11.00;8.63;;;;;;;5.21;nan;102016.91;6190913;28;20218;-68
2023/01/29 13:07:17;;;;;;;13.50;11.27;;;;;;;5.36;nan;102008.13;6189266;28;20230;-68
2023/01/29 13:10:44;;;;;;;14.97;9.53;;;;;;;5.14;nan;102002.09;6174492;28;20777;-68
2023/01/29 13:14:12;;;;;;;11.50;8.83;;;;;;;5.24;nan;101993.53;6177885;28;20261;-67
2023/01/29 13:17:37;;;;;;;9.20;7.47;;;;;;;5.17;nan;101986.78;6185823;28;20233;-65
2023/01/29 13:21:00;;;;;;;10.87;8.57;;;;;;;5.28;nan;101991.56;6172819;28;20248;-66
2023/01/29 13:24:25;;;;;;;11.77;8.77;;;;;;;5.27;nan;101981.84;6181336;28;20245;-68
2023/01/29 13:27:47;;;;;;;12.13;9.97;;;;;;;5.13;nan;101990.53;6174020;28;20233;-68
2023/01/29 13:31:23;;;;;;;10.80;9.40;;;;;;;5.23;nan;101982.94;6178002;28;20238;-68
2023/01/29 13:34:46;;;;;;;11.37;8.40;;;;;;;5.11;nan;101983.53;6179920;28;20506;-67
2023/01/29 13:38:22;;;;;;;16.97;8.77;;;;;;;5.45;nan;101986.28;6171330;28;20246;-68
2023/01/29 13:41:44;;;;;;;12.73;8.30;;;;;;;5.40;nan;101972.28;6160515;28;20279;-68
2023/01/29 13:45:08;;;;;;;11.17;9.30;;;;;;;5.57;nan;101962.47;6165299;28;20320;-68
2023/01/29 13:48:35;;;;;;;9.83;7.97;;;;;;;5.29;nan;101958.56;6182631;28;20849;-69
2023/01/29 13:51:57;;;;;;;16.33;8.83;;;;;;;5.12;nan;101975.44;6185963;28;20542;-67
2023/01/29 13:55:31;;;;;;;11.50;9.47;;;;;;;5.43;nan;101954.28;6187792;28;20226;-68
2023/01/29 13:58:53;;;;;;;12.27;8.43;;;;;;;5.11;nan;101952.31;6176448;28;20226;-67
2023/01/29 14:02:26;;;;;;;12.90;9.67;;;;;;;5.21;nan;101953.63;6175692;28;20230;-67
2023/01/29 14:05:58;;;;;;;14.40;10.57;;;;;;;5.30;nan;101938.94;6170882;28;20702;-67
2023/01/29 14:09:47;;;;;;;13.37;9.60;;;;;;;5.21;nan;101942.06;6183672;28;20608;-66
2023/01/29 14:13:35;;;;;;;7.97;7.13;;;;;;;5.09;nan;101935.50;6181073;28;20234;-68
2023/01/29 14:17:01;;;;;;;13.53;9.77;;;;;;;5.10;nan;101923.88;6156105;28;20225;-67
2023/01/29 14:20:26;;;;;;;14.70;10.23;;;;;;;5.23;nan;101913.44;6178956;28;20224;-67
2023/01/29 14:23:49;;;;;;;13.93;10.43;;;;;;;5.06;nan;101908.06;6157466;28;20247;-68
2023/01/29 14:27:21;;;;;;;13.20;9.77;;;;;;;5.21;nan;101910.84;6158190;28;20234;-67
2023/01/29 14:30:47;;;;;;;17.07;11.83;;;;;;;5.38;nan;101888.63;6152956;28;20321;-67
2023/01/29 14:34:17;;;;;;;12.30;9.80;;;;;;;5.21;nan;101889.47;6181840;28;20222;-67
2023/01/29 14:37:41;;;;;;;10.37;8.30;;;;;;;5.18;nan;101886.94;6159322;28;20222;-66
2023/01/29 14:41:06;;;;;;;14.43;9.30;;;;;;;5.33;nan;101894.19;6160141;28;20238;-67
2023/01/29 14:44:47;;;;;;;10.60;9.00;;;;;;;5.22;nan;101893.88;6153554;28;20329;-67
2023/01/29 14:48:34;;;;;;;12.40;8.43;;;;;;;5.06;nan;101886.69;6150119;28;20623;-67
2023/01/29 14:51:58;;;;;;;13.67;10.37;;;;;;;5.26;nan;101878.53;6150519;28;20234;-68
2023/01/29 14:55:37;;;;;;;13.20;8.73;;;;;;;5.10;nan;101889.13;6172317;28;20773;-67
2023/01/29 14:59:12;;;;;;;11.10;9.83;;;;;;;5.32;nan;101873.72;6160475;28;20234;-68
2023/01/29 15:02:39;;;;;;;10.13;8.50;;;;;;;4.97;nan;101871.97;6168253;28;20233;-68
2023/01/29 15:06:15;;;;;;;11.83;8.43;;;;;;;5.07;85.40;101856.38;6232103;27;20914;-68
2023/01/29 15:09:42;;;;;;;11.90;10.80;;;;;;;5.01;85.55;101867.34;6217687;28;20693;-68
2023/01/29 15:13:12;;;;;;;14.30;10.67;;;;;;;5.01;86.71;101853.97;6200909;28;20220;-68
2023/01/29 15:16:43;;;;;;;11.93;9.20;;;;;;;4.98;86.07;101856.81;6203702;28;20225;-68
2023/01/29 15:20:26;;;;;;;10.73;9.73;;;;;;;4.94;85.97;101861.47;6214113;28;20485;-69
2023/01/29 15:24:03;;;;;;;10.37;8.37;;;;;;;4.94;86.01;101857.91;6227673;28;20236;-68
2023/01/29 15:27:23;;;;;;;12.40;9.63;;;;;;;5.02;86.13;101851.25;6213595;28;21064;-67
2023/01/29 15:30:44;;;;;;;11.00;9.80;;;;;;;4.99;86.32;101835.38;6221606;28;20501;-68
2023/01/29 15:34:07;;;;;;;17.80;11.80;;;;;;;4.88;87.04;101835.06;6224823;28;20229;-68
2023/01/29 15:37:30;;;;;;;14.23;10.00;;;;;;;4.90;86.17;101819.81;6224134;28;20224;-68
2023/01/29 15:40:55;;;;;;;10.97;9.30;;;;;;;4.97;86.52;101815.88;6226986;28;20227;-67
2023/01/29 15:44:18;;;;;;;12.17;10.53;;;;;;;4.97;86.55;101817.66;6203384;28;20233;-67
2023/01/29 15:47:39;;;;;;;11.40;8.77;;;;;;;5.00;86.71;101806.84;6200244;28;20332;-66
2023/01/29 15:51:03;;;;;;;13.63;10.40;;;;;;;5.17;86.35;101806.84;6194566;28;22126;-69
2023/01/29 15:54:26;;;;;;;17.23;11.07;;;;;;;4.93;87.32;101802.75;6197389;28;20221;-69
2023/01/29 15:57:48;;;;;;;14.20;11.13;;;;;;;4.98;86.91;101790.03;6190813;28;22027;-69
2023/01/29 16:01:10;;;;;;;13.33;10.97;;;;;;;4.96;86.58;101789.25;6198078;28;20249;-67
2023/01/29 16:04:32;;;;;;;14.17;11.00;;;;;;;4.88;86.73;101785.13;6195362;28;20237;-68
2023/01/29 16:07:55;;;;;;;13.40;10.73;;;;;;;4.99;86.26;101797.09;6187325;28;20275;-69
2023/01/29 16:11:18;;;;;;;13.57;10.83;;;;;;;4.92;86.02;101787.69;6194518;28;20237;-68
2023/01/29 16:14:42;;;;;;;13.97;11.53;;;;;;;4.99;85.76;101787.28;6199196;28;20218;-68
2023/01/29 16:18:19;;;;;;;14.70;9.57;;;;;;;4.96;85.82;101779.44;6184317;28;20246;-68
2023/01/29 16:21:44;;;;;;;12.53;9.53;;;;;;;4.93;84.72;101784.91;6184532;28;20255;-67
2023/01/29 16:25:12;;;;;;;14.17;10.67;;;;;;;5.22;84.27;101776.25;6172946;28;20234;-68
2023/01/29 16:28:33;;;;;;;11.20;9.20;;;;;;;5.19;83.83;101776.44;6191825;28;20221;-69
2023/01/29 16:32:00;;;;;;;15.27;9.20;;;;;;;4.73;85.20;101772.59;6187884;28;20229;-70
2023/01/29 16:35:21;;;;;;;10.70;9.60;;;;;;;4.70;85.58;101780.75;6180549;28;20257;-69
2023/01/29 16:38:43;;;;;;;10.80;9.57;;;;;;;4.92;85.15;101761.84;6198408;28;20226;-67
2023/01/29 16:42:23;;;;;;;12.73;8.90;;;;;;;4.90;84.72;101774.41;6191472;28;20236;-68
2023/01/29 16:46:02;;;;;;;13.93;11.03;;;;;;;4.91;84.99;101751.19;6169453;28;20237;-67